Главная страница
METAR-TAF:

METAR-TAF

Аэропорты :

Сиань, Китай

широта: 34-26N, долгота: 108-45E, высота над уровнем моря: 479 м

Текущие метеонаблюдения

Эта сводка был подготовлена 28 минут назад, в 11:00 UTC
Ветер 14 Узел от северо-восточный
Температура 21°C
Влажность 46%
Давление 1014 hPa
Видимость 10 км и более
Нет облачности ниже 1500 м, и нет кучево-дождевой облачности

METAR: ZLXY 241100Z 05007MPS CAVOK 21/09 Q1014 NOSIG

Время: 19:28 (11:28 UTC)

Прогноз

Эта сводка был подготовлена 8 часа и 9 минут назад, в 03:19 UTC
Прогноз действительный с 24-го 06 UTC до 25-го 06 UTC
Ветер 12 Узел от восточно-северо-восточный с порывами до 23 Узел
Видимость: 6000 м

TAF: ZLXY 240319Z 2406/2506 06006G12MPS 6000 NSC TX25/2407Z TN18/2421Z

Метеонаблюдения и прогнозы для более 4000 аэропортов (сводки METAR и TAF).

Имеющиеся станции представлены на карте желтыми и красными точками.

Чтобы увидеть название станции, наведите на нее мышь.

Затем щелкните, чтобы увидеть метеонаблюдения и метеопрогнозы.

Управление картой: чтобы увеличить масштаб, щелкните зеленые кнопки с черным крестиком; чтобы уменьшить масштаб, щелкните зеленую кнопку с тире; для просмотра соседних карт щелкайте зеленые стрелки.


METAR-TAF: